Terminal Aerodrome Forecast
Issued by NWS

Home | Current Version | Previous Version | Text Only | Print | Product List | Glossary Off
Versions: 1 2 3 4 5 6 7 8 9 10 11 12 13 14 15 16

000
FTUS43 KMPX 190903 AAA
TAFRNH
TAF AMD
KRNH 190903Z 1909/2006 13006KT P6SM OVC015
     FM191600 14009KT P6SM BKN020
     FM191900 14011G17KT P6SM SCT025 BKN050
     FM200400 14015G22KT P6SM SCT030 BKN120 WS018/16050KT=

USA.gov is the U.S. government's official web portal to all federal, state and local government web resources and services.